Southampton, New Jersey
Current Conditions -  °F | °C
As of 11:54 AM on Friday 28 Nov 2014 (Local Time) from KVAY Reporting Station
Broken Clouds Broken Clouds  
Wind Chill: 28°   Ceiling: 4900
Heat Index: 36°   Visibility: 10mi
Dew Point: 18°   Wind: 13mph
Humidity: 48%   Direction: 320°NW
Pressure: 30.2"   Gusts: 22mph
Location:  39.7955°N, 74.6301°W
Report Text: KVAY 281654Z AUTO 32011G19KT 10SM BKN049 02/M08 A3020 RMK AO2 SLP228 T00221078
Loading
Personal Weather Stations






























Interactive Weather Map New forecast layout! Learn more

10-Day Weather Forecast

Advertisements
Track Severe Weather on mobile